EWG5565 EGNM-EDDH
Flight info
| Callsign | EWG5565 |
|---|---|
| Flight time | 1h 25m |
| Altitude | 23000 |
| Route | DOPEK3X DOPEK L60 OTBED/N0448F370 Y70 RAVLO DCT MONIL/N0404F230 T606 SPY N873 ANDIK M105 RIBSO RIBSO3P |
| Aircraft | A320/M-SDE3FGHIRWY/LB1 |
Departure
| Time | 2026-04-23 18:14 |
|---|---|
| Airport | Leeds Bradford Airport (EGNM) |
Arrival
| Time | 2026-04-23 19:40 |
|---|---|
| Airport | Hamburg Helmut Schmidt Airport (EDDH) |
| Time | Latitude | Longitude | Altitude | Speed | Heading |
|---|---|---|---|---|---|
| 2026-04-23 17:49 | 53.86883 | -1.65760 | 665 ft | 0 kts | 1° |
| 2026-04-23 17:54 | 53.86882 | -1.65760 | 665 ft | 0 kts | 1° |
| 2026-04-23 18:07 | 53.86864 | -1.65761 | 665 ft | 4 kts | 1° |
| 2026-04-23 18:07 | 53.86841 | -1.65762 | 665 ft | 3 kts | 360° |
| 2026-04-23 18:08 | 53.86821 | -1.65750 | 665 ft | 4 kts | 295° |
| 2026-04-23 18:08 | 53.86816 | -1.65710 | 665 ft | 4 kts | 272° |
| 2026-04-23 18:08 | 53.86815 | -1.65682 | 664 ft | 0 kts | 270° |
| 2026-04-23 18:09 | 53.86815 | -1.65681 | 664 ft | 0 kts | 271° |
| 2026-04-23 18:10 | 53.86816 | -1.65693 | 664 ft | 2 kts | 270° |
| 2026-04-23 18:10 | 53.86816 | -1.65715 | 665 ft | 2 kts | 270° |
| 2026-04-23 18:11 | 53.86815 | -1.65740 | 665 ft | 2 kts | 262° |
| 2026-04-23 18:11 | 53.86812 | -1.65768 | 665 ft | 6 kts | 262° |
| 2026-04-23 18:11 | 53.86812 | -1.65894 | 665 ft | 16 kts | 270° |
| 2026-04-23 18:11 | 53.86827 | -1.66094 | 664 ft | 17 kts | 308° |
| 2026-04-23 18:12 | 53.86911 | -1.66240 | 666 ft | 18 kts | 316° |
| 2026-04-23 18:12 | 53.86975 | -1.66375 | 671 ft | 12 kts | 300° |
| 2026-04-23 18:12 | 53.86997 | -1.66489 | 673 ft | 9 kts | 258° |
| 2026-04-23 18:12 | 53.86983 | -1.66529 | 673 ft | 0 kts | 233° |
| 2026-04-23 18:13 | 53.86982 | -1.66531 | 673 ft | 1 kts | 233° |
| 2026-04-23 18:13 | 53.86970 | -1.66557 | 672 ft | 4 kts | 230° |
| 2026-04-23 18:13 | 53.86945 | -1.66581 | 671 ft | 4 kts | 179° |
| 2026-04-23 18:13 | 53.86916 | -1.66552 | 671 ft | 9 kts | 144° |
| 2026-04-23 18:14 | 53.86683 | -1.66197 | 667 ft | 86 kts | 137° |
| 2026-04-23 18:14 | 53.86075 | -1.65255 | 676 ft | 149 kts | 136° |
| 2026-04-23 18:14 | 53.85255 | -1.63992 | 1191 ft | 162 kts | 136° |
| 2026-04-23 18:14 | 53.84375 | -1.62689 | 1904 ft | 174 kts | 137° |
| 2026-04-23 18:15 | 53.83450 | -1.61370 | 2596 ft | 171 kts | 138° |
| 2026-04-23 18:15 | 53.82539 | -1.60122 | 3243 ft | 171 kts | 139° |
| 2026-04-23 18:15 | 53.81673 | -1.58684 | 3814 ft | 178 kts | 133° |
| 2026-04-23 18:15 | 53.80830 | -1.57129 | 4408 ft | 181 kts | 132° |
| 2026-04-23 18:16 | 53.79978 | -1.55554 | 5011 ft | 184 kts | 131° |
| 2026-04-23 18:16 | 53.79099 | -1.53947 | 5587 ft | 188 kts | 132° |
| 2026-04-23 18:16 | 53.78196 | -1.52317 | 6172 ft | 191 kts | 133° |
| 2026-04-23 18:17 | 53.76016 | -1.49351 | 7044 ft | 212 kts | 144° |
| 2026-04-23 18:17 | 53.74779 | -1.47907 | 7397 ft | 218 kts | 145° |
| 2026-04-23 18:17 | 53.73532 | -1.46463 | 7459 ft | 217 kts | 145° |
| 2026-04-23 18:17 | 53.72288 | -1.45027 | 7459 ft | 216 kts | 145° |
| 2026-04-23 18:18 | 53.71021 | -1.43569 | 7467 ft | 225 kts | 144° |
| 2026-04-23 18:18 | 53.69719 | -1.42072 | 7465 ft | 227 kts | 144° |
| 2026-04-23 18:18 | 53.68412 | -1.40568 | 7464 ft | 228 kts | 145° |
| 2026-04-23 18:18 | 53.67080 | -1.39036 | 7502 ft | 242 kts | 145° |
| 2026-04-23 18:19 | 53.65619 | -1.37357 | 7861 ft | 266 kts | 145° |
| 2026-04-23 18:19 | 53.64042 | -1.35544 | 8449 ft | 280 kts | 145° |
| 2026-04-23 18:19 | 53.62417 | -1.33675 | 9229 ft | 286 kts | 145° |
| 2026-04-23 18:19 | 53.60756 | -1.31768 | 10023 ft | 292 kts | 146° |
| 2026-04-23 18:20 | 53.59059 | -1.29822 | 10736 ft | 301 kts | 146° |
| 2026-04-23 18:20 | 53.57262 | -1.27766 | 11011 ft | 324 kts | 146° |
| 2026-04-23 18:20 | 53.55339 | -1.25569 | 11404 ft | 341 kts | 146° |
| 2026-04-23 18:20 | 53.53359 | -1.23308 | 12073 ft | 347 kts | 146° |
| 2026-04-23 18:21 | 53.51347 | -1.21019 | 12773 ft | 352 kts | 146° |
| 2026-04-23 18:21 | 53.49310 | -1.18695 | 13550 ft | 355 kts | 146° |
| 2026-04-23 18:21 | 53.47257 | -1.16348 | 13964 ft | 359 kts | 145° |
| 2026-04-23 18:21 | 53.45346 | -1.13567 | 14455 ft | 369 kts | 133° |
| 2026-04-23 18:22 | 53.43773 | -1.10144 | 15064 ft | 374 kts | 122° |
| 2026-04-23 18:22 | 53.42554 | -1.06274 | 15734 ft | 376 kts | 116° |
| 2026-04-23 18:22 | 53.41398 | -1.02340 | 16444 ft | 377 kts | 116° |
| 2026-04-23 18:22 | 53.40231 | -0.98391 | 17127 ft | 379 kts | 117° |
| 2026-04-23 18:23 | 53.39443 | -0.95769 | 17578 ft | 381 kts | 117° |
| 2026-04-23 18:23 | 53.36574 | -0.86494 | 19079 ft | 386 kts | 118° |
| 2026-04-23 18:24 | 53.34058 | -0.78530 | 19456 ft | 387 kts | 118° |
| 2026-04-23 18:24 | 53.32797 | -0.74555 | 19463 ft | 386 kts | 118° |
| 2026-04-23 18:24 | 53.31630 | -0.70512 | 19462 ft | 386 kts | 111° |
| 2026-04-23 18:25 | 53.30655 | -0.61670 | 20026 ft | 392 kts | 92° |
| 2026-04-23 18:25 | 53.30550 | -0.57158 | 20618 ft | 394 kts | 94° |
| 2026-04-23 18:25 | 53.30429 | -0.52566 | 21198 ft | 397 kts | 94° |
| 2026-04-23 18:25 | 53.30296 | -0.47943 | 21747 ft | 400 kts | 93° |
| 2026-04-23 18:26 | 53.30159 | -0.43284 | 22287 ft | 402 kts | 94° |
| 2026-04-23 18:26 | 53.30023 | -0.38604 | 22811 ft | 405 kts | 94° |
| 2026-04-23 18:26 | 53.29888 | -0.33877 | 23304 ft | 408 kts | 94° |
| 2026-04-23 18:26 | 53.29755 | -0.29134 | 23452 ft | 409 kts | 94° |
| 2026-04-23 18:27 | 53.29619 | -0.24387 | 23467 ft | 409 kts | 94° |
| 2026-04-23 18:27 | 53.29482 | -0.19634 | 23466 ft | 409 kts | 94° |
| 2026-04-23 18:27 | 53.29343 | -0.14896 | 23467 ft | 409 kts | 94° |
| 2026-04-23 18:27 | 53.29204 | -0.10151 | 23460 ft | 409 kts | 94° |
| 2026-04-23 18:28 | 53.29061 | -0.05410 | 23462 ft | 409 kts | 94° |
| 2026-04-23 18:28 | 53.28913 | -0.00666 | 23458 ft | 409 kts | 95° |
| 2026-04-23 18:28 | 53.28696 | 0.04076 | 23469 ft | 409 kts | 101° |
| 2026-04-23 18:28 | 53.28205 | 0.08785 | 23876 ft | 412 kts | 102° |
| 2026-04-23 18:29 | 53.27703 | 0.13513 | 24328 ft | 415 kts | 103° |
| 2026-04-23 18:29 | 53.27200 | 0.18264 | 24746 ft | 417 kts | 103° |
| 2026-04-23 18:29 | 53.26692 | 0.23039 | 25154 ft | 419 kts | 103° |
| 2026-04-23 18:29 | 53.26181 | 0.27839 | 25551 ft | 420 kts | 103° |
| 2026-04-23 18:30 | 53.25665 | 0.32648 | 25938 ft | 422 kts | 103° |
| 2026-04-23 18:30 | 53.25139 | 0.37483 | 26324 ft | 424 kts | 104° |
| 2026-04-23 18:30 | 53.24612 | 0.42329 | 26680 ft | 425 kts | 104° |
| 2026-04-23 18:30 | 53.24083 | 0.47192 | 26983 ft | 426 kts | 104° |
| 2026-04-23 18:31 | 53.23552 | 0.52065 | 27356 ft | 428 kts | 104° |
| 2026-04-23 18:31 | 53.23024 | 0.56896 | 27691 ft | 430 kts | 104° |
| 2026-04-23 18:31 | 53.22486 | 0.61812 | 28039 ft | 432 kts | 104° |
| 2026-04-23 18:31 | 53.21943 | 0.66742 | 28386 ft | 433 kts | 104° |
| 2026-04-23 18:32 | 53.21394 | 0.71702 | 28724 ft | 435 kts | 104° |
| 2026-04-23 18:32 | 53.20840 | 0.76677 | 29046 ft | 437 kts | 105° |
| 2026-04-23 18:32 | 53.20283 | 0.81666 | 29359 ft | 438 kts | 105° |
| 2026-04-23 18:32 | 53.19720 | 0.86665 | 29665 ft | 440 kts | 105° |
| 2026-04-23 18:33 | 53.19153 | 0.91689 | 29955 ft | 441 kts | 105° |
| 2026-04-23 18:33 | 53.18584 | 0.96723 | 30241 ft | 443 kts | 105° |
| 2026-04-23 18:33 | 53.18011 | 1.01770 | 30512 ft | 444 kts | 105° |
| 2026-04-23 18:33 | 53.17433 | 1.06843 | 30697 ft | 447 kts | 105° |
| 2026-04-23 18:34 | 53.16851 | 1.11933 | 30943 ft | 447 kts | 105° |
| 2026-04-23 18:34 | 53.16268 | 1.17008 | 31241 ft | 446 kts | 105° |
| 2026-04-23 18:34 | 53.15684 | 1.22066 | 31546 ft | 445 kts | 105° |
| 2026-04-23 18:34 | 53.15100 | 1.27129 | 31854 ft | 444 kts | 105° |
| 2026-04-23 18:35 | 53.14517 | 1.32169 | 32158 ft | 442 kts | 105° |
| 2026-04-23 18:35 | 53.13932 | 1.37188 | 32470 ft | 441 kts | 105° |
| 2026-04-23 18:35 | 53.13345 | 1.42194 | 32782 ft | 440 kts | 105° |
| 2026-04-23 18:35 | 53.12752 | 1.47193 | 33093 ft | 439 kts | 105° |
| 2026-04-23 18:36 | 53.12160 | 1.52164 | 33402 ft | 438 kts | 106° |
| 2026-04-23 18:36 | 53.11568 | 1.57135 | 33679 ft | 438 kts | 105° |
| 2026-04-23 18:36 | 53.10977 | 1.62109 | 33952 ft | 438 kts | 105° |
| 2026-04-23 18:36 | 53.10385 | 1.67074 | 34251 ft | 437 kts | 105° |
| 2026-04-23 18:37 | 53.09791 | 1.72025 | 34545 ft | 436 kts | 105° |
| 2026-04-23 18:37 | 53.09198 | 1.76973 | 34808 ft | 435 kts | 105° |
| 2026-04-23 18:37 | 53.08611 | 1.81842 | 35058 ft | 435 kts | 105° |
| 2026-04-23 18:37 | 53.08015 | 1.86768 | 35297 ft | 435 kts | 105° |
| 2026-04-23 18:38 | 53.07416 | 1.91692 | 35532 ft | 434 kts | 105° |
| 2026-04-23 18:38 | 53.06815 | 1.96612 | 35759 ft | 434 kts | 105° |
| 2026-04-23 18:38 | 53.06212 | 2.01532 | 35979 ft | 434 kts | 105° |
| 2026-04-23 18:38 | 53.05606 | 2.06450 | 36152 ft | 435 kts | 105° |
| 2026-04-23 18:39 | 53.04996 | 2.11378 | 36325 ft | 435 kts | 106° |
| 2026-04-23 18:39 | 53.04383 | 2.16301 | 36516 ft | 435 kts | 106° |
| 2026-04-23 18:39 | 53.03768 | 2.21224 | 36714 ft | 435 kts | 106° |
| 2026-04-23 18:39 | 53.03157 | 2.26149 | 36904 ft | 435 kts | 105° |
| 2026-04-23 18:40 | 53.02544 | 2.31074 | 37103 ft | 435 kts | 106° |
| 2026-04-23 18:40 | 53.02075 | 2.36038 | 37292 ft | 439 kts | 95° |
| 2026-04-23 18:40 | 53.02288 | 2.41136 | 37436 ft | 445 kts | 87° |
| 2026-04-23 18:41 | 53.03069 | 2.51347 | 37456 ft | 446 kts | 86° |
| 2026-04-23 18:41 | 53.03870 | 2.61564 | 37455 ft | 446 kts | 86° |
| 2026-04-23 18:42 | 53.04653 | 2.71794 | 37452 ft | 446 kts | 87° |
| 2026-04-23 18:42 | 53.05404 | 2.82029 | 37453 ft | 446 kts | 87° |
| 2026-04-23 18:43 | 53.06147 | 2.92264 | 37450 ft | 446 kts | 87° |
| 2026-04-23 18:43 | 53.06888 | 3.02505 | 37448 ft | 446 kts | 87° |
| 2026-04-23 18:44 | 53.07613 | 3.12744 | 37413 ft | 446 kts | 87° |
| 2026-04-23 18:44 | 53.08326 | 3.22976 | 37419 ft | 445 kts | 87° |
| 2026-04-23 18:45 | 53.09041 | 3.33200 | 37432 ft | 445 kts | 87° |
| 2026-04-23 18:45 | 53.09749 | 3.43432 | 37432 ft | 445 kts | 87° |
| 2026-04-23 18:46 | 53.10443 | 3.53655 | 37459 ft | 445 kts | 87° |
| 2026-04-23 18:46 | 53.11130 | 3.63881 | 37449 ft | 445 kts | 87° |
| 2026-04-23 18:47 | 53.11808 | 3.74064 | 37442 ft | 445 kts | 87° |
| 2026-04-23 18:47 | 53.12484 | 3.84376 | 37444 ft | 445 kts | 87° |
| 2026-04-23 18:48 | 53.13140 | 3.94567 | 37434 ft | 445 kts | 87° |
| 2026-04-23 18:48 | 53.13785 | 4.04820 | 37436 ft | 445 kts | 87° |
| 2026-04-23 18:49 | 53.14428 | 4.15080 | 37428 ft | 445 kts | 87° |
| 2026-04-23 18:49 | 53.15066 | 4.25341 | 37434 ft | 445 kts | 87° |
| 2026-04-23 18:50 | 53.15486 | 4.32206 | 37434 ft | 445 kts | 87° |
| 2026-04-23 18:50 | 53.16306 | 4.45857 | 37438 ft | 445 kts | 88° |
| 2026-04-23 18:51 | 53.16911 | 4.56119 | 37429 ft | 445 kts | 88° |
| 2026-04-23 18:51 | 53.17510 | 4.66404 | 37425 ft | 446 kts | 88° |
| 2026-04-23 18:52 | 53.18105 | 4.76690 | 37403 ft | 446 kts | 88° |
| 2026-04-23 18:52 | 53.18687 | 4.86994 | 37402 ft | 446 kts | 88° |
| 2026-04-23 18:53 | 53.19162 | 4.95554 | 37404 ft | 446 kts | 88° |
| 2026-04-23 18:53 | 53.19731 | 5.05869 | 37407 ft | 447 kts | 88° |
| 2026-04-23 18:54 | 53.20287 | 5.16189 | 37400 ft | 447 kts | 88° |
| 2026-04-23 18:54 | 53.20833 | 5.26515 | 37406 ft | 447 kts | 88° |
| 2026-04-23 18:55 | 53.21373 | 5.36852 | 37411 ft | 447 kts | 88° |
| 2026-04-23 18:55 | 53.21907 | 5.47185 | 37420 ft | 447 kts | 88° |
| 2026-04-23 18:56 | 53.22436 | 5.57536 | 37409 ft | 447 kts | 88° |
| 2026-04-23 18:56 | 53.22940 | 5.67882 | 37408 ft | 448 kts | 88° |
| 2026-04-23 18:57 | 53.23437 | 5.78166 | 37410 ft | 448 kts | 88° |
| 2026-04-23 18:57 | 53.23942 | 5.88525 | 37412 ft | 448 kts | 88° |
| 2026-04-23 18:58 | 53.24433 | 5.98892 | 37412 ft | 448 kts | 88° |
| 2026-04-23 18:58 | 53.24905 | 6.09257 | 37409 ft | 448 kts | 88° |
| 2026-04-23 18:59 | 53.25369 | 6.19625 | 37400 ft | 448 kts | 88° |
| 2026-04-23 18:59 | 53.25831 | 6.29989 | 37401 ft | 447 kts | 88° |
| 2026-04-23 19:00 | 53.26285 | 6.40348 | 37392 ft | 447 kts | 88° |
| 2026-04-23 19:00 | 53.26726 | 6.50706 | 37393 ft | 447 kts | 88° |
| 2026-04-23 19:01 | 53.27164 | 6.61062 | 37394 ft | 447 kts | 88° |
| 2026-04-23 19:01 | 53.27592 | 6.71423 | 37391 ft | 447 kts | 88° |
| 2026-04-23 19:02 | 53.28000 | 6.81781 | 37387 ft | 446 kts | 88° |
| 2026-04-23 19:02 | 53.28402 | 6.92122 | 37370 ft | 446 kts | 88° |
| 2026-04-23 19:03 | 53.28791 | 7.02473 | 37363 ft | 446 kts | 88° |
| 2026-04-23 19:03 | 53.29177 | 7.12822 | 37359 ft | 446 kts | 87° |
| 2026-04-23 19:04 | 53.29562 | 7.23182 | 37360 ft | 446 kts | 88° |
| 2026-04-23 19:04 | 53.29933 | 7.33534 | 37358 ft | 446 kts | 87° |
| 2026-04-23 19:05 | 53.30290 | 7.43899 | 37359 ft | 447 kts | 88° |
| 2026-04-23 19:05 | 53.30468 | 7.49098 | 37159 ft | 448 kts | 88° |
| 2026-04-23 19:05 | 53.30643 | 7.54292 | 36888 ft | 448 kts | 88° |
| 2026-04-23 19:05 | 53.30815 | 7.59491 | 36633 ft | 448 kts | 88° |
| 2026-04-23 19:06 | 53.30983 | 7.64689 | 36375 ft | 449 kts | 88° |
| 2026-04-23 19:06 | 53.31151 | 7.69908 | 36113 ft | 449 kts | 88° |
| 2026-04-23 19:06 | 53.31319 | 7.75126 | 35514 ft | 451 kts | 87° |
| 2026-04-23 19:06 | 53.31487 | 7.80390 | 34632 ft | 455 kts | 87° |
| 2026-04-23 19:07 | 53.31653 | 7.85686 | 33668 ft | 457 kts | 88° |
| 2026-04-23 19:07 | 53.31816 | 7.90999 | 32735 ft | 458 kts | 88° |
| 2026-04-23 19:07 | 53.31974 | 7.96316 | 31718 ft | 455 kts | 88° |
| 2026-04-23 19:07 | 53.32130 | 8.01564 | 30779 ft | 453 kts | 87° |
| 2026-04-23 19:08 | 53.32283 | 8.06839 | 29998 ft | 451 kts | 87° |
| 2026-04-23 19:08 | 53.32434 | 8.12036 | 29336 ft | 445 kts | 86° |
| 2026-04-23 19:08 | 53.32845 | 8.17121 | 28685 ft | 439 kts | 77° |
| 2026-04-23 19:08 | 53.33700 | 8.22012 | 28085 ft | 438 kts | 69° |
| 2026-04-23 19:09 | 53.34801 | 8.26746 | 27470 ft | 435 kts | 68° |
| 2026-04-23 19:09 | 53.35876 | 8.31383 | 26894 ft | 431 kts | 68° |
| 2026-04-23 19:09 | 53.36949 | 8.36046 | 26294 ft | 427 kts | 67° |
| 2026-04-23 19:09 | 53.38007 | 8.40670 | 25703 ft | 424 kts | 68° |
| 2026-04-23 19:10 | 53.39167 | 8.45259 | 25116 ft | 419 kts | 58° |
| 2026-04-23 19:10 | 53.40948 | 8.49047 | 24548 ft | 412 kts | 40° |
| 2026-04-23 19:10 | 53.43167 | 8.51919 | 24004 ft | 408 kts | 33° |
| 2026-04-23 19:10 | 53.45462 | 8.54693 | 23386 ft | 404 kts | 32° |
| 2026-04-23 19:11 | 53.47724 | 8.57453 | 22831 ft | 400 kts | 34° |
| 2026-04-23 19:11 | 53.49961 | 8.60187 | 22272 ft | 396 kts | 34° |
| 2026-04-23 19:11 | 53.52183 | 8.62890 | 21759 ft | 392 kts | 34° |
| 2026-04-23 19:11 | 53.54373 | 8.65572 | 21250 ft | 388 kts | 34° |
| 2026-04-23 19:12 | 53.55801 | 8.67359 | 20897 ft | 387 kts | 38° |
| 2026-04-23 19:12 | 53.58090 | 8.71993 | 20283 ft | 386 kts | 54° |
| 2026-04-23 19:12 | 53.59538 | 8.75780 | 19776 ft | 383 kts | 55° |
| 2026-04-23 19:12 | 53.60960 | 8.79541 | 19316 ft | 380 kts | 55° |
| 2026-04-23 19:13 | 53.62367 | 8.83287 | 18828 ft | 377 kts | 55° |
| 2026-04-23 19:13 | 53.63764 | 8.87008 | 18339 ft | 374 kts | 55° |
| 2026-04-23 19:13 | 53.65153 | 8.90708 | 17786 ft | 372 kts | 55° |
| 2026-04-23 19:13 | 53.66529 | 8.94385 | 17277 ft | 369 kts | 54° |
| 2026-04-23 19:14 | 53.67888 | 8.98027 | 16799 ft | 366 kts | 55° |
| 2026-04-23 19:14 | 53.69238 | 9.01640 | 16314 ft | 363 kts | 54° |
| 2026-04-23 19:14 | 53.70579 | 9.05223 | 15845 ft | 359 kts | 55° |
| 2026-04-23 19:14 | 53.71909 | 9.08774 | 15369 ft | 357 kts | 54° |
| 2026-04-23 19:15 | 53.73228 | 9.12306 | 14907 ft | 354 kts | 54° |
| 2026-04-23 19:15 | 53.74532 | 9.15810 | 14453 ft | 351 kts | 54° |
| 2026-04-23 19:15 | 53.75824 | 9.19291 | 13989 ft | 349 kts | 54° |
| 2026-04-23 19:15 | 53.77106 | 9.22749 | 13468 ft | 346 kts | 54° |
| 2026-04-23 19:16 | 53.78380 | 9.26189 | 12953 ft | 343 kts | 54° |
| 2026-04-23 19:16 | 53.79641 | 9.29597 | 12437 ft | 341 kts | 54° |
| 2026-04-23 19:16 | 53.80835 | 9.33053 | 11935 ft | 341 kts | 60° |
| 2026-04-23 19:17 | 53.82098 | 9.40751 | 11259 ft | 333 kts | 74° |
| 2026-04-23 19:17 | 53.82542 | 9.44492 | 11264 ft | 315 kts | 74° |
| 2026-04-23 19:17 | 53.82849 | 9.48149 | 11268 ft | 329 kts | 86° |
| 2026-04-23 19:17 | 53.82380 | 9.52089 | 11264 ft | 354 kts | 109° |
| 2026-04-23 19:18 | 53.81053 | 9.55560 | 11263 ft | 354 kts | 132° |
| 2026-04-23 19:18 | 53.79049 | 9.57978 | 11262 ft | 356 kts | 155° |
| 2026-04-23 19:18 | 53.76661 | 9.58987 | 11260 ft | 355 kts | 179° |
| 2026-04-23 19:18 | 53.74238 | 9.58451 | 11273 ft | 351 kts | 202° |
| 2026-04-23 19:19 | 53.70310 | 9.53957 | 11274 ft | 344 kts | 225° |
| 2026-04-23 19:19 | 53.68830 | 9.50901 | 11270 ft | 333 kts | 250° |
| 2026-04-23 19:20 | 53.68991 | 9.43662 | 11275 ft | 312 kts | 301° |
| 2026-04-23 19:20 | 53.70179 | 9.40618 | 11274 ft | 310 kts | 312° |
| 2026-04-23 19:20 | 53.71683 | 9.38061 | 11270 ft | 307 kts | 323° |
| 2026-04-23 19:20 | 53.73508 | 9.36215 | 11274 ft | 305 kts | 339° |
| 2026-04-23 19:21 | 53.75565 | 9.35408 | 11278 ft | 305 kts | 356° |
| 2026-04-23 19:21 | 53.79635 | 9.37280 | 11273 ft | 312 kts | 28° |
| 2026-04-23 19:21 | 53.81440 | 9.39346 | 11273 ft | 314 kts | 33° |
| 2026-04-23 19:22 | 53.83182 | 9.41580 | 11268 ft | 315 kts | 34° |
| 2026-04-23 19:22 | 53.84902 | 9.43884 | 11269 ft | 315 kts | 35° |
| 2026-04-23 19:22 | 53.88302 | 9.48588 | 11259 ft | 319 kts | 42° |
| 2026-04-23 19:23 | 53.89585 | 9.51686 | 11258 ft | 327 kts | 60° |
| 2026-04-23 19:23 | 53.90222 | 9.55420 | 11258 ft | 335 kts | 80° |
| 2026-04-23 19:23 | 53.90078 | 9.59380 | 11258 ft | 344 kts | 101° |
| 2026-04-23 19:24 | 53.87385 | 9.66075 | 11254 ft | 355 kts | 144° |
| 2026-04-23 19:24 | 53.85152 | 9.67847 | 11249 ft | 357 kts | 162° |
| 2026-04-23 19:24 | 53.80957 | 9.71896 | 10876 ft | 344 kts | 126° |
| 2026-04-23 19:25 | 53.79639 | 9.79016 | 10420 ft | 307 kts | 77° |
| 2026-04-23 19:25 | 53.81239 | 9.85164 | 10187 ft | 274 kts | 54° |
| 2026-04-23 19:26 | 53.83068 | 9.90541 | 9931 ft | 254 kts | 54° |
| 2026-04-23 19:26 | 53.83931 | 9.93101 | 9678 ft | 249 kts | 54° |
| 2026-04-23 19:27 | 53.85608 | 9.98162 | 8996 ft | 247 kts | 54° |
| 2026-04-23 19:27 | 53.88093 | 10.05739 | 7962 ft | 243 kts | 54° |
| 2026-04-23 19:28 | 53.89574 | 10.10877 | 7246 ft | 249 kts | 73° |
| 2026-04-23 19:28 | 53.88463 | 10.16438 | 6540 ft | 268 kts | 135° |
| 2026-04-23 19:29 | 53.86988 | 10.18400 | 6141 ft | 270 kts | 143° |
| 2026-04-23 19:29 | 53.85106 | 10.23398 | 5406 ft | 248 kts | 85° |
| 2026-04-23 19:30 | 53.86141 | 10.28596 | 4687 ft | 231 kts | 55° |
| 2026-04-23 19:30 | 53.86894 | 10.30988 | 4358 ft | 229 kts | 54° |
| 2026-04-23 19:30 | 53.88381 | 10.35717 | 3992 ft | 227 kts | 54° |
| 2026-04-23 19:31 | 53.89132 | 10.38087 | 3994 ft | 229 kts | 54° |
| 2026-04-23 19:31 | 53.89888 | 10.40466 | 3986 ft | 229 kts | 54° |
| 2026-04-23 19:31 | 53.90644 | 10.42848 | 3986 ft | 229 kts | 54° |
| 2026-04-23 19:31 | 53.91194 | 10.45413 | 3985 ft | 240 kts | 79° |
| 2026-04-23 19:32 | 53.90911 | 10.48250 | 3985 ft | 253 kts | 111° |
| 2026-04-23 19:32 | 53.89781 | 10.50574 | 3987 ft | 261 kts | 144° |
| 2026-04-23 19:32 | 53.88109 | 10.51686 | 3995 ft | 260 kts | 177° |
| 2026-04-23 19:32 | 53.86366 | 10.51286 | 3987 ft | 250 kts | 210° |
| 2026-04-23 19:33 | 53.85051 | 10.49541 | 3977 ft | 236 kts | 243° |
| 2026-04-23 19:33 | 53.84281 | 10.47137 | 3988 ft | 231 kts | 252° |
| 2026-04-23 19:33 | 53.83034 | 10.42131 | 3988 ft | 231 kts | 255° |
| 2026-04-23 19:34 | 53.82436 | 10.39613 | 3989 ft | 231 kts | 256° |
| 2026-04-23 19:34 | 53.81792 | 10.37112 | 3990 ft | 235 kts | 247° |
| 2026-04-23 19:34 | 53.79715 | 10.32708 | 3983 ft | 240 kts | 237° |
| 2026-04-23 19:35 | 53.78648 | 10.30581 | 3772 ft | 234 kts | 237° |
| 2026-04-23 19:35 | 53.77601 | 10.28498 | 3503 ft | 229 kts | 237° |
| 2026-04-23 19:35 | 53.76602 | 10.26489 | 3280 ft | 223 kts | 238° |
| 2026-04-23 19:35 | 53.75628 | 10.24510 | 3158 ft | 214 kts | 238° |
| 2026-04-23 19:36 | 53.74686 | 10.22589 | 3050 ft | 205 kts | 239° |
| 2026-04-23 19:36 | 53.73818 | 10.20819 | 3046 ft | 191 kts | 239° |
| 2026-04-23 19:36 | 53.73003 | 10.19165 | 3008 ft | 178 kts | 240° |
| 2026-04-23 19:36 | 53.72202 | 10.17514 | 3013 ft | 183 kts | 240° |
| 2026-04-23 19:37 | 53.71398 | 10.15858 | 3005 ft | 183 kts | 240° |
| 2026-04-23 19:37 | 53.70592 | 10.14205 | 2955 ft | 181 kts | 240° |
| 2026-04-23 19:37 | 53.69771 | 10.12511 | 2467 ft | 193 kts | 240° |
| 2026-04-23 19:37 | 53.68887 | 10.10690 | 2039 ft | 194 kts | 239° |
| 2026-04-23 19:38 | 53.68049 | 10.08998 | 1625 ft | 189 kts | 239° |
| 2026-04-23 19:38 | 53.67215 | 10.07312 | 1161 ft | 186 kts | 237° |
| 2026-04-23 19:38 | 53.66409 | 10.05682 | 904 ft | 168 kts | 237° |
| 2026-04-23 19:38 | 53.65707 | 10.04259 | 705 ft | 150 kts | 236° |
| 2026-04-23 19:39 | 53.65065 | 10.02951 | 526 ft | 141 kts | 234° |
| 2026-04-23 19:39 | 53.64466 | 10.01736 | 362 ft | 132 kts | 240° |
| 2026-04-23 19:39 | 53.64077 | 10.00945 | 264 ft | 133 kts | 230° |
| 2026-04-23 19:39 | 53.63326 | 9.99412 | 65 ft | 124 kts | 237° |
| 2026-04-23 19:40 | 53.62934 | 9.98600 | 49 ft | 42 kts | 229° |
| 2026-04-23 19:40 | 53.62813 | 9.98359 | 50 ft | 38 kts | 229° |
| 2026-04-23 19:40 | 53.62600 | 9.97935 | 48 ft | 32 kts | 229° |
| 2026-04-23 19:40 | 53.62470 | 9.97801 | 46 ft | 14 kts | 161° |
| 2026-04-23 19:41 | 53.62434 | 9.97868 | 50 ft | 10 kts | 117° |
| 2026-04-23 19:41 | 53.62434 | 9.97968 | 50 ft | 8 kts | 81° |
| 2026-04-23 19:41 | 53.62450 | 9.98045 | 50 ft | 6 kts | 68° |
| 2026-04-23 19:41 | 53.62470 | 9.98104 | 48 ft | 5 kts | 52° |
| 2026-04-23 19:42 | 53.62499 | 9.98165 | 50 ft | 10 kts | 51° |
| 2026-04-23 19:42 | 53.62564 | 9.98296 | 50 ft | 18 kts | 50° |
| 2026-04-23 19:42 | 53.62654 | 9.98479 | 50 ft | 21 kts | 49° |
| 2026-04-23 19:42 | 53.62742 | 9.98658 | 50 ft | 19 kts | 51° |
| 2026-04-23 19:43 | 53.62827 | 9.98829 | 50 ft | 18 kts | 50° |
| 2026-04-23 19:43 | 53.62904 | 9.98985 | 50 ft | 17 kts | 50° |
| 2026-04-23 19:43 | 53.62975 | 9.99129 | 50 ft | 15 kts | 50° |
| 2026-04-23 19:43 | 53.63040 | 9.99261 | 50 ft | 14 kts | 52° |
| 2026-04-23 19:44 | 53.63085 | 9.99366 | 50 ft | 0 kts | 55° |
| 2026-04-23 19:44 | 53.63086 | 9.99366 | 50 ft | 1 kts | 55° |
| 2026-04-23 19:45 | 53.63103 | 9.99408 | 50 ft | 8 kts | 55° |
| 2026-04-23 19:45 | 53.63146 | 9.99511 | 50 ft | 14 kts | 55° |
| 2026-04-23 19:45 | 53.63212 | 9.99650 | 50 ft | 9 kts | 47° |
| 2026-04-23 19:45 | 53.63221 | 9.99665 | 50 ft | 0 kts | 47° |
| 2026-04-23 19:46 | 53.63227 | 9.99679 | 50 ft | 4 kts | 55° |
| 2026-04-23 19:46 | 53.63228 | 9.99718 | 50 ft | 3 kts | 98° |
| 2026-04-23 19:47 | 53.63215 | 9.99761 | 50 ft | 5 kts | 124° |
| 2026-04-23 19:47 | 53.63184 | 9.99800 | 50 ft | 5 kts | 153° |
| 2026-04-23 19:47 | 53.63152 | 9.99825 | 48 ft | 5 kts | 155° |
| 2026-04-23 19:47 | 53.63117 | 9.99854 | 49 ft | 7 kts | 154° |
| 2026-04-23 19:48 | 53.63065 | 9.99898 | 50 ft | 10 kts | 151° |
| 2026-04-23 19:48 | 53.62998 | 9.99957 | 50 ft | 12 kts | 154° |
| 2026-04-23 19:48 | 53.62956 | 10.00052 | 51 ft | 11 kts | 64° |
| 2026-04-23 19:48 | 53.63024 | 10.00135 | 51 ft | 13 kts | 32° |
| 2026-04-23 19:49 | 53.63053 | 10.00235 | 48 ft | 11 kts | 116° |
| 2026-04-23 19:49 | 53.63010 | 10.00352 | 51 ft | 11 kts | 120° |
| 2026-04-23 19:49 | 53.63006 | 10.00364 | 48 ft | 0 kts | 120° |
| 2026-04-23 19:50 | 53.63013 | 10.00342 | 51 ft | 0 kts | 122° |
| 2026-04-23 19:52 | 53.63014 | 10.00342 | 51 ft | 0 kts | 122° |
| 2026-04-23 19:53 | 53.63014 | 10.00341 | 51 ft | 0 kts | 122° |
| 2026-04-23 20:02 | 53.63014 | 10.00340 | 51 ft | 0 kts | 122° |